Time;durP1;ratioP1;P1;durP2;ratioP2;P2;SDS_P1;SDS_P2;PMS_P1;PMS_P2;Temp;Humidity;BMP_temperature;BMP_pressure;BME280_temperature;BME280_humidity;BME280_pressure;Samples;Min_cycle;Max_cycle;Signal;HPM_P1;HPM_P2
2023/04/20 00:01:31;;;;;;;29.53;22.37;;;4.20;99.90;;;;;;5012370;28;20076;-82
2023/04/20 00:03:57;;;;;;;26.77;21.70;;;4.30;99.90;;;;;;5012723;28;20108;-81
2023/04/20 00:06:24;;;;;;;24.93;20.90;;;4.30;99.90;;;;;;5012197;28;20029;-80
2023/04/20 00:08:49;;;;;;;26.50;20.60;;;4.30;99.90;;;;;;5012715;28;20029;-81
2023/04/20 00:11:15;;;;;;;28.40;21.60;;;4.30;99.90;;;;;;5011461;28;20037;-80
2023/04/20 00:13:40;;;;;;;29.10;22.43;;;4.30;99.90;;;;;;5012621;28;20025;-81
2023/04/20 00:16:06;;;;;;;27.60;22.30;;;4.30;99.90;;;;;;5012758;28;20026;-81
2023/04/20 00:18:32;;;;;;;30.90;22.73;;;4.30;99.90;;;;;;5012447;28;20022;-80
2023/04/20 00:20:57;;;;;;;30.20;23.20;;;4.30;99.90;;;;;;5013437;28;20033;-80
2023/04/20 00:23:23;;;;;;;31.43;24.07;;;4.30;99.90;;;;;;5012363;28;20439;-81
2023/04/20 00:25:50;;;;;;;32.23;23.40;;;4.30;99.90;;;;;;5012244;28;20512;-80
2023/04/20 00:28:16;;;;;;;31.40;24.10;;;4.30;99.90;;;;;;5012137;28;20018;-80
2023/04/20 00:30:41;;;;;;;33.77;24.30;;;4.30;99.90;;;;;;5011919;28;20040;-80
2023/04/20 00:33:07;;;;;;;31.07;24.10;;;4.40;99.90;;;;;;5011967;28;20397;-80
2023/04/20 00:35:32;;;;;;;29.43;23.73;;;4.30;99.90;;;;;;5012011;28;20042;-80
2023/04/20 00:37:58;;;;;;;31.47;24.03;;;4.40;99.90;;;;;;5011988;28;20026;-80
2023/04/20 00:40:23;;;;;;;32.87;24.70;;;4.40;99.90;;;;;;5011387;28;20030;-81
2023/04/20 00:42:49;;;;;;;29.83;24.57;;;4.40;99.90;;;;;;5013133;28;20032;-83
2023/04/20 00:45:14;;;;;;;32.67;24.67;;;4.40;99.90;;;;;;5016075;28;20436;-82
2023/04/20 00:47:40;;;;;;;34.00;25.20;;;4.40;99.90;;;;;;5015969;28;20041;-81
2023/04/20 00:50:06;;;;;;;31.40;25.57;;;4.30;99.90;;;;;;5015603;28;20068;-80
2023/04/20 00:52:32;;;;;;;34.23;27.47;;;4.30;99.90;;;;;;5015435;28;20064;-81
2023/04/20 00:54:58;;;;;;;33.83;26.83;;;4.30;99.90;;;;;;5016002;28;20566;-80
2023/04/20 00:57:25;;;;;;;37.50;26.80;;;4.30;99.90;;;;;;5015871;28;20053;-80
2023/04/20 00:59:50;;;;;;;35.53;28.13;;;4.30;99.90;;;;;;5015413;28;20033;-80
2023/04/20 01:02:17;;;;;;;37.17;28.37;;;4.30;99.90;;;;;;5016103;28;20034;-83
2023/04/20 01:04:46;;;;;;;38.67;28.67;;;4.40;99.90;;;;;;5016470;28;20164;-80
2023/04/20 01:07:11;;;;;;;38.57;28.83;;;4.30;99.90;;;;;;5016305;28;20076;-80
2023/04/20 01:09:38;;;;;;;39.43;28.23;;;4.30;99.90;;;;;;5015431;28;20108;-81
2023/04/20 01:12:05;;;;;;;42.13;31.77;;;4.30;99.90;;;;;;5015279;28;20036;-80
2023/04/20 01:14:30;;;;;;;46.43;32.80;;;4.30;99.90;;;;;;5015386;28;20057;-81
2023/04/20 01:16:56;;;;;;;44.77;33.30;;;4.30;99.90;;;;;;5015549;28;20104;-81
2023/04/20 01:19:22;;;;;;;43.60;32.23;;;4.30;99.90;;;;;;5015144;28;20034;-83
2023/04/20 01:21:47;;;;;;;47.07;33.57;;;4.30;99.90;;;;;;5015479;28;20026;-82
2023/04/20 01:24:13;;;;;;;46.57;33.20;;;4.30;99.90;;;;;;5015275;28;20014;-80
2023/04/20 01:26:38;;;;;;;39.57;29.77;;;4.30;99.90;;;;;;5015204;28;20033;-80
2023/04/20 01:29:04;;;;;;;38.10;28.87;;;4.30;99.90;;;;;;5015304;28;20026;-82
2023/04/20 01:31:30;;;;;;;38.17;28.50;;;4.30;99.90;;;;;;5014961;28;20503;-80
2023/04/20 01:33:56;;;;;;;36.77;26.47;;;4.30;99.90;;;;;;5015310;28;20840;-81
2023/04/20 01:36:21;;;;;;;36.47;26.63;;;4.40;99.90;;;;;;5014711;28;20021;-80
2023/04/20 01:38:47;;;;;;;34.23;25.43;;;4.30;99.90;;;;;;5015100;28;20057;-82
2023/04/20 01:41:13;;;;;;;34.17;25.53;;;4.30;99.90;;;;;;5014384;28;20089;-81
2023/04/20 01:43:39;;;;;;;35.87;25.07;;;4.30;99.90;;;;;;5014915;28;20057;-81
2023/04/20 01:46:05;;;;;;;37.03;25.53;;;4.30;99.90;;;;;;5015460;28;20026;-80
2023/04/20 01:48:31;;;;;;;34.70;25.13;;;4.40;99.90;;;;;;5014669;28;20065;-80
2023/04/20 01:50:57;;;;;;;36.47;25.50;;;4.30;99.90;;;;;;5014855;28;20400;-80
2023/04/20 01:53:24;;;;;;;34.30;24.97;;;4.40;99.90;;;;;;5014652;28;20068;-80
2023/04/20 01:55:49;;;;;;;33.30;24.30;;;4.40;99.90;;;;;;5014471;28;20033;-80
2023/04/20 01:58:15;;;;;;;31.13;23.07;;;4.40;99.90;;;;;;5014648;28;20839;-81
2023/04/20 02:00:40;;;;;;;32.83;23.87;;;4.40;99.90;;;;;;5014559;28;20427;-80
2023/04/20 02:03:06;;;;;;;31.90;23.23;;;4.30;99.90;;;;;;5014206;28;20072;-80
2023/04/20 02:05:32;;;;;;;34.77;25.63;;;4.40;99.90;;;;;;5014691;28;20030;-81
2023/04/20 02:07:57;;;;;;;38.03;27.27;;;4.40;99.90;;;;;;5014626;28;20030;-81
2023/04/20 02:10:23;;;;;;;37.40;25.87;;;4.30;99.90;;;;;;5014371;28;20087;-81
2023/04/20 02:12:49;;;;;;;36.77;26.23;;;4.30;99.90;;;;;;5014217;28;20059;-81
2023/04/20 02:15:15;;;;;;;33.60;24.13;;;4.30;99.90;;;;;;5014586;28;20877;-80
2023/04/20 02:17:42;;;;;;;33.40;25.00;;;4.40;99.90;;;;;;5013847;28;20032;-81
2023/04/20 02:20:09;;;;;;;35.23;25.60;;;4.40;99.90;;;;;;5014159;28;20042;-81
2023/04/20 02:22:35;;;;;;;34.77;25.80;;;4.40;99.90;;;;;;5014223;28;20029;-81
2023/04/20 02:25:01;;;;;;;34.33;23.53;;;4.40;99.90;;;;;;5014131;28;20612;-81
2023/04/20 02:27:27;;;;;;;32.93;22.33;;;4.40;99.90;;;;;;5013966;28;20052;-80
2023/04/20 02:29:52;;;;;;;31.60;22.33;;;4.40;99.90;;;;;;5012790;28;20036;-83
2023/04/20 02:32:18;;;;;;;30.67;21.80;;;4.40;99.90;;;;;;5013827;28;20022;-80
2023/04/20 02:34:44;;;;;;;28.33;21.43;;;4.40;99.90;;;;;;5013862;28;20099;-83
2023/04/20 02:37:09;;;;;;;28.83;20.20;;;4.40;99.90;;;;;;5013973;28;20880;-80
2023/04/20 02:39:35;;;;;;;25.07;18.07;;;4.30;99.90;;;;;;5013393;28;20757;-80
2023/04/20 02:42:00;;;;;;;23.83;17.77;;;4.30;99.90;;;;;;5013470;28;20098;-80
2023/04/20 02:44:26;;;;;;;20.33;15.60;;;4.40;99.90;;;;;;5013849;28;20312;-81
2023/04/20 02:46:51;;;;;;;19.33;14.97;;;4.40;99.90;;;;;;5013271;28;20125;-81
2023/04/20 02:49:17;;;;;;;17.50;13.43;;;4.40;99.90;;;;;;5012964;28;20026;-81
2023/04/20 02:51:42;;;;;;;17.23;12.83;;;4.40;99.90;;;;;;5012936;28;20080;-80
2023/04/20 02:54:08;;;;;;;14.80;12.10;;;4.40;99.90;;;;;;5013038;28;20030;-82
2023/04/20 02:56:33;;;;;;;14.57;11.30;;;4.30;99.90;;;;;;5012732;28;20128;-80
2023/04/20 02:58:59;;;;;;;17.00;11.83;;;4.30;99.90;;;;;;5013198;28;20033;-79
2023/04/20 03:01:25;;;;;;;15.60;11.13;;;4.30;99.90;;;;;;5012553;28;20088;-81
2023/04/20 03:03:51;;;;;;;14.03;10.80;;;4.30;99.90;;;;;;5013219;28;20041;-82
2023/04/20 03:06:16;;;;;;;11.93;10.13;;;4.30;99.90;;;;;;5011548;28;20457;-82
2023/04/20 03:08:42;;;;;;;13.40;10.47;;;4.20;99.90;;;;;;5012876;28;20026;-80
2023/04/20 03:11:07;;;;;;;13.67;9.60;;;4.20;99.90;;;;;;5012489;28;20033;-84
2023/04/20 03:13:33;;;;;;;10.73;8.93;;;4.20;99.90;;;;;;5013165;28;20032;-80
2023/04/20 03:15:59;;;;;;;9.90;7.43;;;4.20;99.90;;;;;;5014684;28;20033;-80
2023/04/20 03:18:24;;;;;;;11.57;7.53;;;4.20;99.90;;;;;;5014770;28;20033;-81
2023/04/20 03:20:50;;;;;;;12.67;8.37;;;4.20;99.90;;;;;;5013627;28;20030;-83
2023/04/20 03:23:16;;;;;;;9.17;7.20;;;4.20;99.90;;;;;;5014578;28;20116;-80
2023/04/20 03:25:42;;;;;;;8.60;6.73;;;4.10;99.90;;;;;;5013291;28;20080;-80
2023/04/20 03:28:07;;;;;;;9.20;6.73;;;4.10;99.90;;;;;;5012609;28;20414;-80
2023/04/20 03:30:33;;;;;;;10.17;6.50;;;4.10;99.90;;;;;;5011915;28;20033;-81
2023/04/20 03:32:58;;;;;;;8.67;6.90;;;4.10;99.90;;;;;;5012312;28;20049;-80
2023/04/20 03:35:24;;;;;;;8.97;6.93;;;4.10;99.90;;;;;;5012967;28;20068;-81
2023/04/20 03:37:49;;;;;;;10.63;7.73;;;4.00;99.90;;;;;;5012247;28;20060;-81
2023/04/20 03:40:15;;;;;;;10.07;8.10;;;4.00;99.90;;;;;;5012550;28;20026;-80
2023/04/20 03:42:41;;;;;;;9.90;7.43;;;4.00;99.90;;;;;;5012729;28;20076;-81
2023/04/20 03:45:06;;;;;;;9.43;7.50;;;4.00;99.90;;;;;;5013317;28;20060;-82
2023/04/20 03:47:32;;;;;;;10.83;8.13;;;4.00;99.90;;;;;;5012325;28;20177;-80
2023/04/20 03:49:58;;;;;;;12.47;8.80;;;4.00;99.90;;;;;;5012522;28;20049;-80
2023/04/20 03:52:23;;;;;;;10.63;8.13;;;4.00;99.90;;;;;;5012355;28;20030;-81
2023/04/20 03:54:49;;;;;;;11.37;8.70;;;4.00;99.90;;;;;;5012963;28;20021;-81
2023/04/20 03:57:14;;;;;;;11.17;8.70;;;4.00;99.90;;;;;;5012585;28;20018;-80
2023/04/20 03:59:40;;;;;;;12.77;10.00;;;4.00;99.90;;;;;;5012151;28;20111;-81
2023/04/20 04:02:06;;;;;;;13.23;10.40;;;4.00;99.90;;;;;;5012871;28;20026;-82
2023/04/20 04:04:32;;;;;;;14.20;10.23;;;4.00;99.90;;;;;;5012881;28;20112;-81
2023/04/20 04:06:57;;;;;;;15.23;11.43;;;4.00;99.90;;;;;;5012717;28;20606;-80
2023/04/20 04:09:25;;;;;;;14.67;11.50;;;4.00;99.90;;;;;;5012323;28;20030;-81
2023/04/20 04:11:51;;;;;;;17.67;11.97;;;4.00;99.90;;;;;;5012922;28;20083;-82
2023/04/20 04:14:16;;;;;;;15.83;11.17;;;4.00;99.90;;;;;;5012572;28;20033;-80
2023/04/20 04:16:42;;;;;;;21.53;13.97;;;4.00;99.90;;;;;;5011832;28;20025;-80
2023/04/20 04:19:07;;;;;;;17.67;12.80;;;4.10;99.90;;;;;;5011388;28;20034;-79
2023/04/20 04:21:33;;;;;;;19.20;14.87;;;4.10;99.90;;;;;;5009710;28;20033;-78
2023/04/20 04:23:59;;;;;;;20.80;15.07;;;4.10;99.90;;;;;;5011693;28;20116;-79
2023/04/20 04:26:25;;;;;;;22.33;16.90;;;4.00;99.90;;;;;;5010121;28;20053;-78
2023/04/20 04:28:51;;;;;;;22.80;16.83;;;4.10;99.90;;;;;;5011493;28;20033;-78
2023/04/20 04:31:18;;;;;;;29.37;22.37;;;4.10;99.90;;;;;;5009035;28;20037;-78
2023/04/20 04:33:46;;;;;;;26.17;20.53;;;4.10;99.90;;;;;;5010987;28;20056;-78
2023/04/20 04:36:14;;;;;;;29.50;21.13;;;4.20;99.90;;;;;;5010338;28;20036;-78
2023/04/20 04:38:40;;;;;;;27.77;22.57;;;4.20;99.90;;;;;;5011365;28;20037;-78
2023/04/20 04:41:06;;;;;;;20.63;16.43;;;4.20;99.90;;;;;;5011021;28;20034;-78
2023/04/20 04:43:32;;;;;;;18.43;13.27;;;4.20;99.90;;;;;;5011163;28;20048;-78
2023/04/20 04:45:58;;;;;;;14.80;11.40;;;4.20;99.90;;;;;;5009371;28;20037;-78
2023/04/20 04:48:23;;;;;;;13.50;10.43;;;4.30;99.90;;;;;;5011136;28;20394;-77
2023/04/20 04:50:49;;;;;;;11.70;9.70;;;4.30;99.90;;;;;;5009967;28;20101;-78
2023/04/20 04:53:14;;;;;;;12.27;10.07;;;4.20;99.90;;;;;;5009563;28;20022;-78
2023/04/20 04:55:40;;;;;;;19.03;14.10;;;4.20;99.90;;;;;;5011167;28;20025;-78
2023/04/20 04:58:06;;;;;;;13.43;9.97;;;4.20;99.90;;;;;;5010071;28;20042;-78
2023/04/20 05:00:31;;;;;;;13.17;10.30;;;4.20;99.90;;;;;;5010420;28;20033;-78
2023/04/20 05:02:57;;;;;;;11.60;9.70;;;4.20;99.90;;;;;;5011109;28;20032;-76
2023/04/20 05:05:24;;;;;;;12.50;10.00;;;4.20;99.90;;;;;;5013158;28;20382;-79
2023/04/20 05:07:49;;;;;;;13.60;10.57;;;4.20;99.90;;;;;;5011658;28;20045;-79
2023/04/20 05:10:15;;;;;;;28.37;17.63;;;4.20;99.90;;;;;;5011404;28;20391;-79
2023/04/20 05:12:41;;;;;;;15.60;10.87;;;4.20;99.90;;;;;;5015142;28;20033;-79
2023/04/20 05:15:07;;;;;;;12.83;10.17;;;4.20;99.90;;;;;;5013756;28;20018;-80
2023/04/20 05:17:32;;;;;;;12.13;9.77;;;4.20;99.90;;;;;;5013902;28;20030;-79
2023/04/20 05:19:58;;;;;;;14.53;11.83;;;4.20;99.90;;;;;;5013714;28;20037;-80
2023/04/20 05:22:24;;;;;;;13.00;10.87;;;4.20;99.90;;;;;;5015242;28;20515;-79
2023/04/20 05:24:49;;;;;;;19.23;13.97;;;4.30;99.90;;;;;;5012762;28;20029;-79
2023/04/20 05:27:15;;;;;;;14.73;12.40;;;4.30;99.90;;;;;;5013995;28;20092;-79
2023/04/20 05:29:40;;;;;;;18.07;12.33;;;4.30;99.90;;;;;;5014355;28;20026;-78
2023/04/20 05:32:06;;;;;;;16.80;12.77;;;4.30;99.90;;;;;;5019574;28;20091;-84
2023/04/20 05:34:32;;;;;;;17.17;13.20;;;4.30;99.90;;;;;;5019959;28;20040;-79
2023/04/20 05:36:58;;;;;;;16.00;13.17;;;4.30;99.90;;;;;;5020307;28;20041;-80
2023/04/20 05:39:24;;;;;;;18.13;13.87;;;4.30;99.90;;;;;;5018902;28;20037;-79
2023/04/20 05:41:50;;;;;;;14.07;12.33;;;4.30;99.90;;;;;;5020053;28;20025;-80
2023/04/20 05:44:15;;;;;;;16.87;12.00;;;4.30;99.90;;;;;;5020031;28;20218;-80
2023/04/20 05:46:41;;;;;;;15.50;12.00;;;4.30;99.90;;;;;;5019849;28;20053;-79
2023/04/20 05:49:07;;;;;;;13.03;11.50;;;4.30;99.90;;;;;;5020737;28;20033;-80
2023/04/20 05:51:32;;;;;;;15.27;12.30;;;4.30;99.90;;;;;;5020246;28;20018;-80
2023/04/20 05:54:00;;;;;;;15.93;12.33;;;4.30;99.90;;;;;;5020542;28;20033;-80
2023/04/20 05:56:25;;;;;;;18.97;13.70;;;4.30;99.90;;;;;;5020518;28;20038;-79
2023/04/20 05:58:51;;;;;;;27.93;21.40;;;4.30;99.90;;;;;;5019332;28;20053;-80
2023/04/20 06:01:17;;;;;;;70.00;41.60;;;4.30;99.90;;;;;;5019806;28;20522;-80
2023/04/20 06:03:43;;;;;;;36.60;23.30;;;4.30;99.90;;;;;;5019350;28;20031;-80
2023/04/20 06:06:08;;;;;;;174.47;68.93;;;4.40;99.90;;;;;;5019772;28;20500;-80
2023/04/20 06:08:34;;;;;;;18.57;15.90;;;4.40;99.90;;;;;;5018096;28;20471;-78
2023/04/20 06:11:00;;;;;;;19.37;15.37;;;4.40;99.90;;;;;;5016346;28;20906;-78
2023/04/20 06:13:25;;;;;;;26.20;23.87;;;4.40;99.90;;;;;;5016442;28;20037;-79
2023/04/20 06:15:52;;;;;;;12.27;10.97;;;4.40;99.90;;;;;;5017672;28;20033;-78
2023/04/20 06:18:18;;;;;;;14.23;10.57;;;4.50;99.90;;;;;;5011033;28;20598;-78
2023/04/20 06:20:44;;;;;;;15.73;12.27;;;4.50;99.90;;;;;;5012870;28;20037;-78
2023/04/20 06:23:11;;;;;;;11.40;9.60;;;4.50;99.90;;;;;;5011930;28;21449;-77
2023/04/20 06:25:37;;;;;;;10.47;8.60;;;4.50;99.90;;;;;;5011029;28;20029;-78
2023/04/20 06:28:04;;;;;;;12.93;10.40;;;4.60;99.90;;;;;;5010815;28;20709;-78
2023/04/20 06:30:32;;;;;;;9.10;7.60;;;4.60;99.90;;;;;;5011319;28;20026;-79
2023/04/20 06:32:58;;;;;;;9.73;8.20;;;4.70;99.90;;;;;;5009504;28;20122;-77
2023/04/20 06:35:25;;;;;;;10.80;8.10;;;4.70;99.90;;;;;;5010937;28;20026;-77
2023/04/20 06:37:51;;;;;;;14.00;9.77;;;4.70;99.90;;;;;;5011660;28;21404;-77
2023/04/20 06:40:17;;;;;;;12.23;9.83;;;4.80;99.90;;;;;;5009613;28;20037;-77
2023/04/20 06:42:43;;;;;;;14.50;10.63;;;4.70;99.90;;;;;;5010686;28;20047;-77
2023/04/20 06:45:09;;;;;;;14.33;9.33;;;4.70;99.90;;;;;;5010616;28;20064;-77
2023/04/20 06:47:35;;;;;;;15.60;9.30;;;4.70;99.90;;;;;;5011777;28;20406;-76
2023/04/20 06:50:06;;;;;;;10.10;8.30;;;4.60;99.90;;;;;;5011293;28;20026;-77
2023/04/20 06:52:31;;;;;;;8.47;7.37;;;4.70;99.90;;;;;;5012914;28;20042;-77
2023/04/20 06:54:58;;;;;;;7.97;6.50;;;4.60;99.90;;;;;;5013667;28;20043;-77
2023/04/20 06:57:24;;;;;;;10.57;8.50;;;4.70;99.90;;;;;;5012132;28;20105;-77
2023/04/20 06:59:50;;;;;;;9.97;7.43;;;4.70;99.90;;;;;;5013366;28;20032;-78
2023/04/20 07:02:15;;;;;;;8.87;7.03;;;4.60;99.90;;;;;;5011106;28;20115;-77
2023/04/20 07:04:41;;;;;;;8.43;7.37;;;4.70;99.90;;;;;;5012226;28;20511;-77
2023/04/20 07:07:07;;;;;;;8.77;7.47;;;4.60;99.90;;;;;;5012053;28;21152;-77
2023/04/20 07:09:32;;;;;;;18.73;11.97;;;4.60;99.90;;;;;;5011960;28;20037;-77
2023/04/20 07:11:58;;;;;;;44.60;25.17;;;4.60;99.90;;;;;;5011210;28;20041;-77
2023/04/20 07:14:23;;;;;;;50.93;25.50;;;4.70;99.90;;;;;;5012126;28;20170;-77
2023/04/20 07:16:52;;;;;;;31.53;17.70;;;4.60;99.90;;;;;;5011403;28;20037;-78
2023/04/20 07:19:18;;;;;;;35.60;21.30;;;4.70;99.90;;;;;;5011651;28;20139;-77
2023/04/20 07:21:43;;;;;;;22.67;20.30;;;4.60;99.90;;;;;;5011378;28;21039;-77
2023/04/20 07:24:09;;;;;;;14.80;12.50;;;4.60;99.90;;;;;;5012283;28;20040;-77
2023/04/20 07:26:36;;;;;;;15.87;11.17;;;4.60;99.90;;;;;;5011705;28;20045;-77
2023/04/20 07:29:02;;;;;;;15.27;11.70;;;4.60;99.90;;;;;;5012174;28;20076;-77
2023/04/20 07:31:28;;;;;;;14.07;10.87;;;4.60;99.90;;;;;;5011148;28;20038;-77
2023/04/20 07:33:54;;;;;;;13.60;12.17;;;4.60;99.90;;;;;;5011600;28;20548;-77
2023/04/20 07:36:21;;;;;;;16.50;11.90;;;4.60;99.90;;;;;;5012281;28;20032;-77
2023/04/20 07:38:47;;;;;;;14.07;12.17;;;4.70;99.90;;;;;;5012320;28;20026;-77
2023/04/20 07:41:14;;;;;;;13.87;12.40;;;4.60;99.90;;;;;;5011017;28;20075;-77
2023/04/20 07:43:40;;;;;;;14.70;11.67;;;4.60;99.90;;;;;;5011109;28;20041;-77
2023/04/20 07:46:06;;;;;;;17.43;12.33;;;4.60;99.90;;;;;;5011567;28;20061;-77
2023/04/20 07:48:33;;;;;;;14.37;11.67;;;4.60;99.90;;;;;;5012279;28;20427;-76
2023/04/20 07:50:59;;;;;;;15.67;10.60;;;4.50;99.90;;;;;;5010746;28;20029;-77
2023/04/20 07:53:25;;;;;;;11.57;8.97;;;4.60;99.90;;;;;;5010804;28;20505;-76
2023/04/20 07:55:51;;;;;;;11.60;9.07;;;4.60;99.90;;;;;;5011620;28;20026;-77
2023/04/20 07:58:17;;;;;;;10.83;9.07;;;4.60;99.90;;;;;;5011484;28;20045;-77
2023/04/20 08:00:45;;;;;;;11.70;9.43;;;4.60;99.90;;;;;;5010675;28;20049;-77
2023/04/20 08:03:10;;;;;;;15.87;13.23;;;4.50;99.90;;;;;;5011791;28;20033;-77
2023/04/20 08:05:37;;;;;;;11.97;10.30;;;4.50;99.90;;;;;;5011134;28;20037;-77
2023/04/20 08:08:03;;;;;;;12.17;9.80;;;4.50;99.90;;;;;;5011714;28;20037;-78
2023/04/20 08:10:28;;;;;;;11.77;8.97;;;4.50;99.90;;;;;;5010350;28;20033;-77
2023/04/20 08:12:54;;;;;;;10.23;8.67;;;4.50;99.90;;;;;;5011423;28;20030;-77
2023/04/20 08:15:19;;;;;;;11.20;9.63;;;4.60;99.90;;;;;;5011313;28;20022;-77
2023/04/20 08:17:45;;;;;;;12.97;9.90;;;4.60;99.90;;;;;;5006438;28;20750;-77
2023/04/20 08:20:11;;;;;;;12.83;9.60;;;4.70;99.90;;;;;;5009949;28;20383;-77
2023/04/20 08:22:37;;;;;;;12.17;9.63;;;4.70;99.90;;;;;;5010079;28;20036;-76
2023/04/20 08:25:04;;;;;;;11.53;10.00;;;4.80;99.90;;;;;;5010107;28;20022;-77
2023/04/20 08:27:29;;;;;;;11.00;9.63;;;4.80;99.90;;;;;;5009831;28;20049;-76
2023/04/20 08:29:55;;;;;;;12.00;9.43;;;4.80;99.90;;;;;;5009415;28;20810;-77
2023/04/20 08:32:22;;;;;;;10.53;9.13;;;4.70;99.90;;;;;;5010077;28;20172;-77
2023/04/20 08:34:48;;;;;;;13.30;10.37;;;4.70;99.90;;;;;;5009031;28;20030;-77
2023/04/20 08:37:14;;;;;;;10.93;9.50;;;4.80;99.90;;;;;;5008478;28;20470;-77
2023/04/20 08:39:40;;;;;;;12.23;10.07;;;4.80;99.90;;;;;;5010511;28;20021;-77
2023/04/20 08:42:07;;;;;;;11.40;8.20;;;4.90;99.90;;;;;;5009662;28;20036;-78
2023/04/20 08:44:33;;;;;;;10.37;8.30;;;5.00;99.90;;;;;;5009426;28;20474;-78
2023/04/20 08:46:59;;;;;;;11.77;9.27;;;5.00;99.90;;;;;;5011072;28;20038;-77
2023/04/20 08:49:28;;;;;;;11.77;9.60;;;5.00;99.90;;;;;;5010318;28;20113;-77
2023/04/20 08:51:54;;;;;;;13.80;9.07;;;5.00;99.90;;;;;;5011549;28;20123;-78
2023/04/20 08:54:19;;;;;;;14.60;9.77;;;5.00;99.90;;;;;;5010643;28;20036;-78
2023/04/20 08:56:47;;;;;;;10.43;8.60;;;5.00;99.90;;;;;;5011141;28;20030;-78
2023/04/20 08:59:14;;;;;;;10.77;8.90;;;5.10;99.90;;;;;;5010020;28;21578;-78
2023/04/20 09:01:40;;;;;;;10.13;8.90;;;5.00;99.90;;;;;;5011125;28;20037;-78
2023/04/20 09:04:21;;;;;;;9.37;7.60;;;5.00;99.90;;;;;;5011673;28;20025;-78
2023/04/20 09:06:51;;;;;;;9.73;7.67;;;5.00;99.90;;;;;;5014814;28;20049;-78
2023/04/20 09:09:21;;;;;;;8.67;7.37;;;5.10;99.90;;;;;;5014239;28;20571;-78
2023/04/20 09:11:47;;;;;;;9.80;7.90;;;5.10;99.90;;;;;;5014727;28;20039;-78
2023/04/20 09:14:15;;;;;;;12.30;8.03;;;5.10;99.90;;;;;;5015673;28;20478;-78
2023/04/20 09:16:59;;;;;;;9.60;7.53;;;5.10;99.90;;;;;;5015593;28;20548;-78
2023/04/20 09:19:25;;;;;;;11.77;7.90;;;5.20;99.90;;;;;;5014069;28;20126;-78
2023/04/20 09:21:53;;;;;;;11.17;7.97;;;5.30;99.90;;;;;;5016124;28;20021;-78
2023/04/20 09:24:20;;;;;;;9.77;8.17;;;5.30;99.90;;;;;;5015884;28;21094;-78
2023/04/20 09:26:46;;;;;;;11.00;8.07;;;5.30;99.90;;;;;;5015630;28;20118;-79
2023/04/20 09:29:20;;;;;;;9.13;8.07;;;5.40;99.90;;;;;;5014943;28;20739;-79
2023/04/20 09:31:46;;;;;;;10.33;7.93;;;5.30;99.90;;;;;;5014907;28;21096;-78
2023/04/20 09:34:12;;;;;;;11.47;8.70;;;5.30;99.90;;;;;;5015098;28;20040;-78
2023/04/20 09:36:40;;;;;;;10.70;8.87;;;5.30;99.90;;;;;;5015593;28;20505;-78
2023/04/20 09:39:10;;;;;;;13.27;9.17;;;5.30;99.90;;;;;;5015187;28;20075;-78
2023/04/20 09:41:37;;;;;;;10.37;9.23;;;5.40;99.90;;;;;;5015981;28;20758;-78
2023/04/20 09:44:03;;;;;;;12.63;10.27;;;5.30;99.90;;;;;;5015902;28;20025;-79
2023/04/20 09:46:30;;;;;;;10.10;9.00;;;5.30;99.90;;;;;;5015304;28;20029;-78
2023/04/20 09:49:01;;;;;;;10.73;8.50;;;5.30;99.90;;;;;;5015767;28;20030;-78
2023/04/20 09:51:27;;;;;;;13.10;9.83;;;5.30;99.90;;;;;;5014392;28;20036;-78
2023/04/20 09:53:57;;;;;;;10.73;8.90;;;5.30;99.90;;;;;;5015413;28;20067;-78
2023/04/20 09:56:24;;;;;;;12.93;10.17;;;5.30;99.90;;;;;;5016120;28;20100;-78
2023/04/20 09:58:51;;;;;;;11.40;9.83;;;5.30;99.90;;;;;;5015152;28;20034;-79
2023/04/20 10:01:17;;;;;;;12.33;9.90;;;5.30;99.90;;;;;;5015171;28;20025;-79
2023/04/20 10:03:44;;;;;;;11.90;9.27;;;5.40;99.90;;;;;;5015252;28;20094;-79
2023/04/20 10:06:20;;;;;;;11.87;9.37;;;5.30;99.90;;;;;;5016230;28;20030;-79
2023/04/20 10:08:47;;;;;;;12.37;9.67;;;5.40;99.90;;;;;;5016310;28;20022;-79
2023/04/20 10:11:30;;;;;;;14.97;12.20;;;5.50;99.90;;;;;;5016083;28;20041;-79
2023/04/20 10:13:57;;;;;;;11.93;9.70;;;5.50;99.90;;;;;;5016254;28;20030;-79
2023/04/20 10:16:24;;;;;;;12.80;9.40;;;5.70;99.90;;;;;;5016107;28;20036;-79
2023/04/20 10:19:01;;;;;;;9.47;8.23;;;5.90;99.90;;;;;;5015730;28;20021;-80
2023/04/20 10:21:27;;;;;;;9.90;7.90;;;6.10;99.90;;;;;;5015536;28;20087;-79
2023/04/20 10:23:53;;;;;;;10.23;8.00;;;6.30;99.90;;;;;;5015401;28;20486;-79
2023/04/20 10:26:19;;;;;;;11.07;8.40;;;6.30;99.90;;;;;;5015724;28;20045;-77
2023/04/20 10:28:45;;;;;;;10.37;7.87;;;6.40;99.90;;;;;;5012993;28;20104;-71
2023/04/20 10:31:12;;;;;;;11.00;8.97;;;6.40;99.90;;;;;;5015119;28;20028;-75
2023/04/20 10:33:51;;;;;;;11.47;9.37;;;6.30;99.90;;;;;;5014322;28;20470;-73
2023/04/20 10:36:31;;;;;;;11.27;8.93;;;6.30;99.90;;;;;;5016483;28;20489;-76
2023/04/20 10:38:57;;;;;;;10.37;8.87;;;6.10;99.90;;;;;;5016951;28;20159;-77
2023/04/20 10:41:23;;;;;;;10.73;8.33;;;6.10;99.90;;;;;;5008769;28;20481;-76
2023/04/20 10:43:49;;;;;;;12.00;9.20;;;6.10;99.90;;;;;;5013009;28;20033;-77
2023/04/20 10:46:23;;;;;;;13.90;8.80;;;6.00;99.90;;;;;;5012755;28;20651;-76
2023/04/20 10:49:00;;;;;;;10.30;8.13;;;6.00;99.90;;;;;;5012746;28;20083;-76
2023/04/20 10:51:26;;;;;;;9.10;7.40;;;5.90;99.90;;;;;;5012065;28;20079;-76
2023/04/20 10:54:04;;;;;;;9.00;7.47;;;6.00;99.90;;;;;;5012701;28;20026;-77
2023/04/20 10:56:46;;;;;;;9.13;7.77;;;6.10;99.90;;;;;;5012175;28;20049;-77
2023/04/20 10:59:14;;;;;;;9.63;8.20;;;6.00;99.90;;;;;;5011854;28;20536;-77
2023/04/20 11:01:41;;;;;;;10.27;8.03;;;6.00;99.90;;;;;;5011606;28;20037;-77
2023/04/20 11:04:09;;;;;;;10.67;8.60;;;6.10;99.90;;;;;;5012712;28;20018;-77
2023/04/20 11:06:35;;;;;;;9.90;8.13;;;6.20;99.90;;;;;;5012877;28;20041;-77
2023/04/20 11:09:01;;;;;;;17.27;11.20;;;6.20;99.90;;;;;;5013237;28;20467;-76
2023/04/20 11:11:27;;;;;;;20.03;13.60;;;6.20;99.90;;;;;;5011369;28;20039;-77
2023/04/20 11:14:13;;;;;;;11.97;8.83;;;6.20;99.90;;;;;;5012663;28;20037;-76
2023/04/20 11:16:39;;;;;;;14.20;9.43;;;6.30;99.90;;;;;;5011894;28;20036;-77
2023/04/20 11:19:05;;;;;;;11.40;8.17;;;6.30;99.90;;;;;;5012400;28;20033;-78
2023/04/20 11:21:38;;;;;;;14.37;10.40;;;6.30;99.90;;;;;;5012210;28;20052;-77
2023/04/20 11:24:15;;;;;;;25.90;15.43;;;6.40;99.90;;;;;;5012282;28;20037;-75
2023/04/20 11:26:42;;;;;;;15.33;9.33;;;6.50;99.90;;;;;;5010955;28;20192;-76
2023/04/20 11:29:07;;;;;;;10.63;9.00;;;6.40;99.90;;;;;;5011846;28;20029;-77
2023/04/20 11:31:33;;;;;;;10.50;9.37;;;6.40;99.90;;;;;;5011899;28;20060;-80
2023/04/20 11:33:59;;;;;;;10.33;8.93;;;6.40;99.90;;;;;;5016204;28;20057;-80
2023/04/20 11:36:28;;;;;;;9.97;8.13;;;6.40;99.90;;;;;;5016591;28;20036;-80
2023/04/20 11:38:54;;;;;;;11.07;8.70;;;6.50;99.90;;;;;;5016158;28;20083;-80
2023/04/20 11:41:20;;;;;;;12.63;8.43;;;6.60;99.90;;;;;;5015552;28;20029;-80
2023/04/20 11:43:47;;;;;;;9.27;7.27;;;6.70;99.90;;;;;;5015665;28;20022;-80
2023/04/20 11:46:19;;;;;;;10.20;8.40;;;6.70;99.90;;;;;;5015222;28;20123;-80
2023/04/20 11:48:46;;;;;;;11.83;8.67;;;6.80;99.90;;;;;;5015847;28;20049;-81
2023/04/20 11:51:13;;;;;;;12.80;7.50;;;6.90;99.90;;;;;;5014944;28;20080;-81
2023/04/20 11:53:39;;;;;;;12.43;8.27;;;6.90;99.90;;;;;;5015904;28;20040;-81
2023/04/20 11:56:05;;;;;;;8.93;7.57;;;6.90;99.90;;;;;;5015292;28;20040;-80
2023/04/20 11:58:30;;;;;;;8.03;7.20;;;7.00;99.90;;;;;;5015759;28;20026;-81
2023/04/20 12:00:56;;;;;;;9.17;7.33;;;7.00;99.90;;;;;;5014919;28;20108;-81
2023/04/20 12:03:22;;;;;;;9.93;6.53;;;7.10;99.90;;;;;;5016536;28;20065;-81
2023/04/20 12:05:48;;;;;;;7.80;5.97;;;7.10;99.90;;;;;;5015740;28;20037;-81
2023/04/20 12:08:16;;;;;;;7.90;6.50;;;7.20;99.90;;;;;;5015343;28;20033;-81
2023/04/20 12:10:41;;;;;;;6.80;5.93;;;7.30;99.90;;;;;;5015773;28;20049;-81
2023/04/20 12:13:07;;;;;;;8.67;5.87;;;7.40;99.90;;;;;;5015653;28;20056;-81
2023/04/20 12:15:32;;;;;;;7.57;6.63;;;7.40;99.90;;;;;;5015898;28;20428;-81
2023/04/20 12:17:58;;;;;;;6.57;5.87;;;7.50;99.90;;;;;;5015277;28;20037;-81
2023/04/20 12:20:23;;;;;;;8.60;7.73;;;7.50;99.90;;;;;;5015206;28;20064;-81
2023/04/20 12:22:49;;;;;;;8.87;6.67;;;7.50;99.90;;;;;;5015831;28;21391;-81
2023/04/20 12:25:14;;;;;;;9.33;6.77;;;7.50;99.90;;;;;;5015399;28;20022;-81
2023/04/20 12:27:40;;;;;;;8.20;6.63;;;7.40;99.90;;;;;;5015678;28;20110;-80
2023/04/20 12:30:08;;;;;;;9.47;7.07;;;7.40;99.90;;;;;;5014002;28;20474;-81
2023/04/20 12:32:33;;;;;;;9.27;7.73;;;7.30;99.90;;;;;;5015356;28;20060;-81
2023/04/20 12:34:59;;;;;;;8.93;7.83;;;7.30;99.90;;;;;;5016220;28;20124;-81
2023/04/20 12:37:26;;;;;;;10.13;8.00;;;7.20;99.90;;;;;;5016686;28;20120;-81
2023/04/20 12:39:51;;;;;;;9.87;6.87;;;7.20;99.90;;;;;;5018860;28;20034;-81